Time;durP1;ratioP1;P1;durP2;ratioP2;P2;SDS_P1;SDS_P2;PMS_P1;PMS_P2;Temp;Humidity;BMP_temperature;BMP_pressure;BME280_temperature;BME280_humidity;BME280_pressure;Samples;Min_cycle;Max_cycle;Signal;HPM_P1;HPM_P2
2021/05/13 00:00:09;;;;;;;15.27;12.98;;;;;;;10.55;100.00;99780.88;5013897;28;20077;-84
2021/05/13 00:02:35;;;;;;;14.85;13.35;;;;;;;10.60;100.00;99777.97;4992940;28;20054;-85
2021/05/13 00:05:03;;;;;;;14.50;12.93;;;;;;;10.65;100.00;99783.88;5008655;28;20049;-85
2021/05/13 00:07:29;;;;;;;15.35;12.10;;;;;;;10.68;100.00;99786.34;5011714;28;20497;-84
2021/05/13 00:09:57;;;;;;;14.90;12.27;;;;;;;10.71;100.00;99786.16;5014822;28;20050;-85
2021/05/13 00:12:37;;;;;;;12.38;11.18;;;;;;;10.66;100.00;99784.72;5011014;28;20057;-85
2021/05/13 00:15:12;;;;;;;13.60;11.45;;;;;;;10.57;99.44;99779.94;5000617;28;20129;-85
2021/05/13 00:17:40;;;;;;;15.00;10.68;;;;;;;10.47;99.25;99777.81;5013298;28;20173;-84
2021/05/13 00:20:11;;;;;;;14.15;11.18;;;;;;;10.48;99.70;99776.03;5025189;28;20492;-86
2021/05/13 00:22:39;;;;;;;13.80;11.07;;;;;;;10.51;100.00;99774.06;5011226;28;20132;-85
2021/05/13 00:25:07;;;;;;;14.40;11.00;;;;;;;10.58;100.00;99776.34;5020136;28;20046;-85
2021/05/13 00:27:35;;;;;;;12.48;10.38;;;;;;;10.51;99.60;99767.91;5020480;28;20472;-86
2021/05/13 00:30:05;;;;;;;11.68;10.45;;;;;;;10.46;99.56;99770.81;5002680;28;20060;-86
2021/05/13 00:32:31;;;;;;;12.73;10.25;;;;;;;10.49;100.00;99775.09;5010225;28;20412;-86
2021/05/13 00:35:01;;;;;;;12.05;10.38;;;;;;;10.48;100.00;99770.75;5009914;28;21643;-86
2021/05/13 00:37:27;;;;;;;11.55;10.15;;;;;;;10.40;100.00;99759.72;5023037;28;20125;-85
2021/05/13 00:39:57;;;;;;;12.15;10.82;;;;;;;10.37;99.99;99771.34;5031220;28;20109;-86
2021/05/13 00:42:27;;;;;;;11.88;10.43;;;;;;;10.31;99.73;99773.47;5028686;28;20065;-84
2021/05/13 00:44:54;;;;;;;12.25;11.00;;;;;;;10.26;100.00;99764.94;5018828;28;20056;-86
2021/05/13 00:47:28;;;;;;;14.73;11.30;;;;;;;10.26;100.00;99763.13;5015314;28;20472;-86
2021/05/13 00:49:55;;;;;;;13.15;10.48;;;;;;;10.10;100.00;99738.44;5014332;28;20101;-86
2021/05/13 00:52:23;;;;;;;12.27;10.75;;;;;;;10.18;100.00;99749.47;5013072;28;20141;-86
2021/05/13 00:54:50;;;;;;;12.10;10.18;;;;;;;10.11;100.00;99753.38;5012356;28;20048;-86
2021/05/13 00:57:17;;;;;;;13.32;10.68;;;;;;;10.16;100.00;99746.91;5010278;28;20049;-86
2021/05/13 00:59:47;;;;;;;13.65;10.85;;;;;;;10.16;100.00;99736.31;4994155;28;20115;-86
2021/05/13 01:02:15;;;;;;;13.98;10.52;;;;;;;10.07;100.00;99736.81;5021498;28;20050;-86
2021/05/13 01:04:42;;;;;;;11.88;10.65;;;;;;;9.98;99.86;99739.97;5016246;28;20061;-86
2021/05/13 01:07:10;;;;;;;13.55;10.32;;;;;;;9.95;100.00;99740.13;5013765;28;20064;-87
2021/05/13 01:09:37;;;;;;;12.05;9.93;;;;;;;9.91;100.00;99729.81;5013878;28;20050;-87
2021/05/13 01:12:10;;;;;;;11.20;10.05;;;;;;;9.94;100.00;99729.63;5007580;28;20129;-86
2021/05/13 01:14:45;;;;;;;11.98;10.68;;;;;;;9.92;100.00;99718.28;5012782;28;20050;-86
2021/05/13 01:17:21;;;;;;;12.98;10.85;;;;;;;10.01;100.00;99729.22;5010669;28;20042;-86
2021/05/13 01:19:51;;;;;;;12.15;10.05;;;;;;;10.00;100.00;99718.72;5020334;28;20084;-85
2021/05/13 01:22:21;;;;;;;11.57;10.48;;;;;;;9.93;100.00;99718.19;5029487;28;20046;-85
2021/05/13 01:24:50;;;;;;;12.02;10.82;;;;;;;9.90;100.00;99722.81;5008660;28;20145;-85
2021/05/13 01:27:19;;;;;;;12.98;11.43;;;;;;;9.91;100.00;99713.97;5008759;28;20054;-85
2021/05/13 01:29:48;;;;;;;12.40;10.88;;;;;;;9.96;100.00;99725.97;5013839;28;20412;-85
2021/05/13 01:32:17;;;;;;;13.20;11.52;;;;;;;9.98;100.00;99729.38;5013314;28;20046;-84
2021/05/13 01:34:45;;;;;;;12.35;10.60;;;;;;;10.01;100.00;99731.88;5013310;28;20042;-85
2021/05/13 01:37:13;;;;;;;12.23;10.93;;;;;;;9.98;100.00;99728.53;5014968;28;20050;-85
2021/05/13 01:39:40;;;;;;;13.43;11.70;;;;;;;9.96;100.00;99727.75;5017052;28;20046;-86
2021/05/13 01:42:07;;;;;;;13.50;12.07;;;;;;;9.98;100.00;99731.19;5006966;28;20077;-85
2021/05/13 01:44:35;;;;;;;13.88;11.43;;;;;;;10.00;100.00;99734.59;5030260;28;20046;-85
2021/05/13 01:47:03;;;;;;;11.98;10.25;;;;;;;9.98;100.00;99732.03;5025934;28;20046;-86
2021/05/13 01:49:33;;;;;;;12.00;10.70;;;;;;;9.98;99.92;99733.81;5026204;28;20048;-85
2021/05/13 01:52:04;;;;;;;11.95;10.50;;;;;;;9.96;99.86;99738.34;5026591;28;20046;-85
2021/05/13 01:54:31;;;;;;;12.02;10.60;;;;;;;9.91;99.61;99729.81;5022191;28;20457;-85
2021/05/13 01:57:05;;;;;;;11.48;10.30;;;;;;;9.93;99.97;99726.13;5019062;28;20118;-84
2021/05/13 01:59:33;;;;;;;12.45;10.57;;;;;;;9.92;100.00;99729.72;5022435;28;20167;-84
2021/05/13 02:02:00;;;;;;;13.35;10.98;;;;;;;9.93;100.00;99717.34;5015377;28;20134;-85
2021/05/13 02:04:28;;;;;;;12.02;10.75;;;;;;;9.92;100.00;99716.50;5017427;28;20049;-85
2021/05/13 02:06:56;;;;;;;13.98;11.77;;;;;;;9.91;100.00;99720.09;4998385;28;20050;-85
2021/05/13 02:09:23;;;;;;;12.27;10.95;;;;;;;9.96;100.00;99722.47;5026160;28;20050;-85
2021/05/13 02:11:50;;;;;;;13.00;10.95;;;;;;;9.93;100.00;99725.28;5029233;28;20037;-85
2021/05/13 02:14:17;;;;;;;12.35;11.15;;;;;;;9.92;100.00;99724.44;5026938;28;20085;-86
2021/05/13 02:16:44;;;;;;;13.15;11.73;;;;;;;9.90;100.00;99730.75;5028387;28;20057;-84
2021/05/13 02:19:48;;;;;;;13.40;11.60;;;;;;;9.88;100.00;99724.69;5011929;28;20060;-85
2021/05/13 02:22:15;;;;;;;14.23;11.20;;;;;;;9.87;100.00;99723.00;5022246;28;20105;-84
2021/05/13 02:24:41;;;;;;;13.98;11.38;;;;;;;9.72;100.00;99693.81;5016364;28;20069;-85
2021/05/13 02:27:08;;;;;;;12.43;11.13;;;;;;;9.83;99.86;99717.88;5015631;28;20076;-84
2021/05/13 02:29:36;;;;;;;15.52;11.93;;;;;;;9.77;99.82;99712.91;5011384;28;20119;-85
2021/05/13 02:32:02;;;;;;;13.23;11.75;;;;;;;9.78;99.23;99711.09;5014325;28;20136;-85
2021/05/13 02:34:34;;;;;;;;;;;;;;;9.74;98.87;99710.44;5016817;28;20061;-85
2021/05/13 02:37:03;;;;;;;12.93;11.63;;;;;;;9.63;98.98;99704.00;5011924;28;20000;-85
2021/05/13 02:39:30;;;;;;;15.57;12.35;;;;;;;9.60;99.33;99693.63;5010373;28;20054;-85
2021/05/13 02:41:57;;;;;;;13.57;11.43;;;;;;;9.58;99.99;99696.34;5008697;28;20077;-85
2021/05/13 02:44:23;;;;;;;13.32;11.27;;;;;;;9.61;100.00;99698.81;5009763;28;20039;-86
2021/05/13 02:46:50;;;;;;;13.60;11.77;;;;;;;9.65;100.00;99699.50;5009275;28;20057;-85
2021/05/13 02:49:19;;;;;;;16.05;12.60;;;;;;;9.64;100.00;99692.50;5016332;28;20053;-85
2021/05/13 02:51:48;;;;;;;15.65;12.85;;;;;;;9.63;100.00;99688.16;5022028;28;20056;-85
2021/05/13 02:54:15;;;;;;;14.07;11.77;;;;;;;9.64;100.00;99696.00;5024323;28;20045;-85
2021/05/13 02:56:42;;;;;;;14.15;12.15;;;;;;;9.63;100.00;99689.00;5023578;28;22092;-85
2021/05/13 02:59:10;;;;;;;12.50;11.20;;;;;;;9.61;100.00;99690.00;5001400;28;20145;-85
2021/05/13 03:01:38;;;;;;;12.98;11.20;;;;;;;9.60;100.00;99689.16;5034431;28;20038;-85
2021/05/13 03:04:05;;;;;;;12.80;11.27;;;;;;;9.54;99.89;99683.38;5035728;28;20037;-85
2021/05/13 03:06:34;;;;;;;16.25;10.80;;;;;;;9.50;99.32;99688.81;5032236;28;20054;-86
2021/05/13 03:09:02;;;;;;;11.90;10.30;;;;;;;9.43;99.82;99678.69;5019764;28;20044;-86
2021/05/13 03:11:31;;;;;;;14.20;10.48;;;;;;;9.54;100.00;99697.44;5036669;28;20045;-85
2021/05/13 03:14:01;;;;;;;11.93;10.73;;;;;;;9.55;100.00;99693.00;5019217;28;20106;-85
2021/05/13 03:16:30;;;;;;;12.57;10.68;;;;;;;9.43;100.00;99671.59;5028567;28;20034;-85
2021/05/13 03:18:58;;;;;;;12.55;11.10;;;;;;;9.55;100.00;99693.00;5017847;28;20064;-86
2021/05/13 03:24:10;;;;;;;12.27;10.85;;;;;;;9.54;99.72;99691.31;5004580;28;20054;-86
2021/05/13 03:27:14;;;;;;;12.73;10.95;;;;;;;9.48;99.76;99688.03;5018493;28;20129;-85
2021/05/13 03:29:32;;;;;;;11.75;10.40;;;;;;;9.47;99.43;99678.41;5013076;28;20054;-86
2021/05/13 03:31:59;;;;;;;11.88;10.60;;;;;;;9.46;99.45;99675.84;5019140;28;20673;-86
2021/05/13 03:34:26;;;;;;;11.52;10.00;;;;;;;9.45;99.32;99682.06;5015385;28;20592;-84
2021/05/13 03:36:53;;;;;;;10.77;9.40;;;;;;;9.37;99.34;99669.28;5027449;28;20106;-84
2021/05/13 03:39:21;;;;;;;11.30;9.48;;;;;;;9.36;98.90;99672.84;5029666;28;20114;-85
2021/05/13 03:41:55;;;;;;;9.63;8.40;;;;;;;9.33;99.06;99667.72;5025219;28;20021;-85
2021/05/13 03:44:24;;;;;;;10.27;9.27;;;;;;;9.37;98.93;99676.34;5035147;28;20030;-85
2021/05/13 03:46:55;;;;;;;12.55;9.88;;;;;;;9.31;99.31;99664.31;5005239;28;20050;-86
2021/05/13 03:49:26;;;;;;;10.02;8.93;;;;;;;9.31;98.74;99672.22;4999634;28;20447;-84
2021/05/13 03:51:54;;;;;;;10.65;8.73;;;;;;;9.21;98.05;99673.66;5001875;28;20046;-85
2021/05/13 03:54:24;;;;;;;11.68;9.55;;;;;;;9.05;97.82;99670.97;4999711;28;20090;-85
2021/05/13 03:56:51;;;;;;;14.93;10.75;;;;;;;9.02;98.33;99667.63;5000147;28;20501;-84
2021/05/13 03:59:25;;;;;;;15.50;11.80;;;;;;;8.98;98.72;99674.00;4998945;28;22069;-85
2021/05/13 04:04:39;;;;;;;17.58;12.73;;;;;;;9.03;100.00;99672.84;5001278;28;20068;-87
2021/05/13 04:07:11;;;;;;;17.50;12.50;;;;;;;9.10;100.00;99665.47;5002514;28;20166;-86
2021/05/13 04:09:38;;;;;;;21.05;13.20;;;;;;;9.15;100.00;99664.25;5006582;28;20069;-84
2021/05/13 04:12:08;;;;;;;21.63;14.98;;;;;;;9.17;100.00;99663.34;5017112;28;20112;-85
2021/05/13 04:14:37;;;;;;;22.48;14.43;;;;;;;9.23;99.77;99674.44;5007792;28;20050;-85
2021/05/13 04:17:07;;;;;;;21.58;14.13;;;;;;;9.14;99.92;99648.50;5001180;28;20142;-87
2021/05/13 04:19:34;;;;;;;22.55;15.43;;;;;;;9.24;100.00;99662.94;4980202;28;20046;-85
2021/05/13 04:22:03;;;;;;;23.08;15.18;;;;;;;9.31;100.00;99674.03;4997219;28;20054;-85
2021/05/13 04:24:31;;;;;;;22.75;15.63;;;;;;;9.31;100.00;99672.22;5007674;28;20073;-86
2021/05/13 04:26:58;;;;;;;20.70;15.70;;;;;;;9.35;100.00;99678.22;5017295;28;20764;-85
2021/05/13 04:29:26;;;;;;;23.80;16.88;;;;;;;9.37;100.00;99677.19;4995647;28;20058;-89
2021/05/13 04:31:53;;;;;;;22.48;16.67;;;;;;;9.38;100.00;99662.19;5001069;28;20191;-86
2021/05/13 04:34:24;;;;;;;23.55;17.42;;;;;;;9.53;100.00;99673.72;5002767;28;20051;-86
2021/05/13 04:36:53;;;;;;;22.02;16.95;;;;;;;9.59;100.00;99666.34;5000493;28;20135;-86
2021/05/13 04:39:23;;;;;;;24.23;17.58;;;;;;;9.55;99.65;99661.28;5017406;28;20049;-86
2021/05/13 04:41:51;;;;;;;;;;;;;;;9.69;99.28;99672.81;5012776;28;20046;-86
2021/05/13 04:44:18;;;;;;;25.90;16.10;;;;;;;9.67;98.66;99664.13;5017320;28;19968;-85
2021/05/13 04:46:46;;;;;;;32.05;15.48;;;;;;;9.68;98.33;99660.53;5015832;28;20060;-86
2021/05/13 04:49:17;;;;;;;19.92;16.17;;;;;;;9.67;97.61;99666.75;5014464;28;20046;-86
2021/05/13 04:51:46;;;;;;;30.23;16.67;;;;;;;9.74;97.93;99667.28;5016366;28;20052;-85
2021/05/13 04:54:13;;;;;;;25.23;15.73;;;;;;;9.70;97.71;99656.03;5011219;28;20046;-86
2021/05/13 04:56:40;;;;;;;34.28;15.50;;;;;;;9.73;97.70;99657.66;5014056;28;20820;-86
2021/05/13 04:59:07;;;;;;;26.05;16.05;;;;;;;9.78;97.58;99660.88;5016509;28;20056;-86
2021/05/13 05:01:35;;;;;;;28.05;16.35;;;;;;;9.75;97.66;99656.63;5026292;28;20109;-86
2021/05/13 05:04:08;;;;;;;26.85;16.08;;;;;;;9.88;97.55;99658.59;5032625;28;20049;-85
2021/05/13 05:06:37;;;;;;;29.55;16.48;;;;;;;9.96;97.01;99665.13;5020872;28;20497;-86
2021/05/13 05:09:05;;;;;;;22.92;16.42;;;;;;;10.02;97.03;99664.81;5025020;28;20041;-86
2021/05/13 05:11:35;;;;;;;43.42;16.45;;;;;;;10.02;96.71;99659.53;5033686;28;20061;-86
2021/05/13 05:14:04;;;;;;;23.58;17.23;;;;;;;10.14;97.08;99663.25;5036558;28;20049;-86
2021/05/13 05:16:32;;;;;;;30.95;18.38;;;;;;;10.28;97.01;99662.50;5037473;28;20080;-85
2021/05/13 05:19:07;;;;;;;24.27;16.77;;;;;;;10.34;96.61;99662.16;5037396;28;20052;-85
2021/05/13 05:21:34;;;;;;;22.60;17.05;;;;;;;10.44;96.55;99655.38;5031926;28;20517;-86
2021/05/13 05:24:08;;;;;;;21.45;16.75;;;;;;;10.63;96.28;99669.25;5015857;28;20043;-85
2021/05/13 05:26:35;;;;;;;26.67;17.10;;;;;;;10.71;96.21;99637.88;4999104;28;20042;-86
2021/05/13 05:29:45;;;;;;;20.30;16.65;;;;;;;10.99;94.79;99658.28;4999161;28;20041;-86
2021/05/13 05:32:12;;;;;;;21.98;17.52;;;;;;;11.17;93.68;99657.16;5034226;28;20034;-86
2021/05/13 05:34:40;;;;;;;19.88;16.50;;;;;;;11.27;92.82;99652.16;5021350;28;20110;-85
2021/05/13 05:37:08;;;;;;;19.33;16.33;;;;;;;11.41;92.01;99660.09;5027884;28;20074;-86
2021/05/13 05:39:36;;;;;;;27.30;16.30;;;;;;;11.51;91.10;99655.06;5001639;28;20081;-86
2021/05/13 05:42:02;;;;;;;18.75;15.80;;;;;;;11.56;90.43;99659.13;4999294;28;20458;-86
2021/05/13 05:44:29;;;;;;;19.08;15.93;;;;;;;11.68;90.77;99654.00;5028338;28;20114;-85
2021/05/13 05:46:57;;;;;;;18.90;16.20;;;;;;;11.82;89.59;99648.69;5030501;28;21749;-84
2021/05/13 05:49:26;;;;;;;27.10;15.43;;;;;;;11.98;89.16;99662.69;5023145;28;20053;-85
2021/05/13 05:51:54;;;;;;;20.25;14.95;;;;;;;12.09;88.06;99657.56;5013525;28;20072;-84
2021/05/13 05:54:24;;;;;;;18.38;15.82;;;;;;;12.18;87.65;99656.94;5026866;28;20113;-84
2021/05/13 05:56:55;;;;;;;21.73;16.60;;;;;;;12.32;87.09;99647.22;5018816;28;20045;-84
2021/05/13 05:59:23;;;;;;;21.15;16.40;;;;;;;12.48;86.02;99642.59;5015354;28;20046;-85
2021/05/13 06:01:50;;;;;;;17.80;15.48;;;;;;;12.68;85.08;99636.81;4991495;28;20096;-85
2021/05/13 06:04:18;;;;;;;19.23;15.82;;;;;;;13.03;84.31;99644.19;5011954;28;20057;-85
2021/05/13 06:06:44;;;;;;;18.80;15.55;;;;;;;13.31;81.50;99638.69;5014126;28;20129;-84
2021/05/13 06:09:16;;;;;;;18.52;15.45;;;;;;;13.66;79.81;99633.53;5009106;28;20050;-87
2021/05/13 06:11:42;;;;;;;17.50;14.88;;;;;;;13.96;79.83;99630.47;5013787;28;20076;-86
2021/05/13 06:14:09;;;;;;;17.45;15.15;;;;;;;13.97;77.90;99634.81;5005388;28;20045;-86
2021/05/13 06:16:37;;;;;;;21.05;15.82;;;;;;;13.87;77.24;99629.31;5010022;28;20070;-86
2021/05/13 06:19:04;;;;;;;17.80;14.95;;;;;;;13.65;77.98;99632.69;5010873;28;20057;-85
2021/05/13 06:21:30;;;;;;;19.77;16.17;;;;;;;13.39;78.20;99636.31;5004503;28;20120;-84
2021/05/13 06:24:07;;;;;;;17.95;15.43;;;;;;;13.09;79.02;99627.81;5005592;28;20058;-85
2021/05/13 06:26:38;;;;;;;20.25;16.23;;;;;;;13.06;79.80;99636.00;5009466;28;20052;-85
2021/05/13 06:29:07;;;;;;;20.00;16.30;;;;;;;13.39;80.73;99630.16;5006905;28;21472;-86
2021/05/13 06:31:35;;;;;;;19.40;15.20;;;;;;;14.89;75.84;99626.16;5014280;28;20053;-86
2021/05/13 06:34:04;;;;;;;16.50;14.07;;;;;;;16.53;69.11;99623.53;5013586;28;21066;-86
2021/05/13 06:36:31;;;;;;;14.57;12.57;;;;;;;18.14;63.08;99614.81;5013823;28;20733;-85
2021/05/13 06:38:59;;;;;;;17.27;12.77;;;;;;;19.83;55.29;99620.31;5013656;28;20051;-86
2021/05/13 06:41:25;;;;;;;14.85;13.02;;;;;;;21.17;50.78;99609.47;5012207;28;20465;-85
2021/05/13 06:43:53;;;;;;;14.07;12.20;;;;;;;22.47;48.80;99612.72;5013105;28;20042;-86
2021/05/13 06:46:22;;;;;;;12.10;10.90;;;;;;;23.49;44.88;99605.88;5010701;28;20046;-86
2021/05/13 06:48:51;;;;;;;13.03;11.37;;;;;;;24.38;43.11;99609.06;5014074;28;20475;-86
2021/05/13 06:51:20;;;;;;;11.70;10.50;;;;;;;25.22;41.18;99600.91;5018677;28;20062;-85
2021/05/13 06:53:47;;;;;;;11.43;9.98;;;;;;;25.78;38.45;99611.16;5014393;28;20496;-85
2021/05/13 06:56:15;;;;;;;11.32;10.23;;;;;;;26.28;38.24;99614.06;5017679;28;20050;-84
2021/05/13 06:58:45;;;;;;;11.38;10.27;;;;;;;26.73;36.20;99611.00;5017831;28;20072;-87
2021/05/13 07:01:13;;;;;;;10.85;9.63;;;;;;;27.03;36.18;99616.31;5029721;28;20065;-86
2021/05/13 07:03:40;;;;;;;11.63;10.40;;;;;;;26.95;34.16;99611.00;5023510;28;20068;-86
2021/05/13 07:06:11;;;;;;;11.32;9.95;;;;;;;26.77;36.00;99612.28;5014004;28;20041;-87
2021/05/13 07:08:40;;;;;;;11.27;10.23;;;;;;;26.50;36.37;99608.47;4999682;28;20058;-86
2021/05/13 07:11:11;;;;;;;12.45;10.05;;;;;;;26.50;36.37;99615.78;5002169;28;20138;-87
2021/05/13 07:13:39;;;;;;;12.27;10.52;;;;;;;26.76;36.07;99613.31;5014787;28;20093;-88
2021/05/13 07:16:06;;;;;;;12.23;10.93;;;;;;;26.83;34.49;99610.66;5009937;28;20137;-87
2021/05/13 07:18:39;;;;;;;12.20;11.00;;;;;;;26.39;34.99;99614.41;5025412;28;20041;-84
2021/05/13 07:21:07;;;;;;;10.73;9.73;;;;;;;26.21;37.52;99611.25;5019386;28;20088;-81
2021/05/13 07:23:34;;;;;;;11.73;10.50;;;;;;;26.46;37.04;99618.03;5017628;28;20125;-82
2021/05/13 07:26:01;;;;;;;12.18;10.98;;;;;;;26.51;36.65;99617.47;5017210;28;20069;-81
2021/05/13 07:28:29;;;;;;;12.30;11.07;;;;;;;26.16;36.88;99622.69;5009712;28;20139;-83
2021/05/13 07:30:56;;;;;;;12.77;11.45;;;;;;;26.05;37.25;99619.63;5022392;28;20069;-83
2021/05/13 07:33:26;;;;;;;12.57;10.75;;;;;;;26.19;37.33;99624.19;5020751;28;20121;-82
2021/05/13 07:35:53;;;;;;;12.48;11.07;;;;;;;26.43;36.89;99613.00;5012472;28;20041;-85
2021/05/13 07:38:20;;;;;;;12.13;10.93;;;;;;;26.50;36.70;99610.34;5027622;28;20092;-81
2021/05/13 07:40:48;;;;;;;13.95;11.43;;;;;;;26.76;36.39;99605.16;5024331;28;20084;-84
2021/05/13 07:43:15;;;;;;;12.05;10.88;;;;;;;26.90;35.13;99601.53;5020591;28;20061;-83
2021/05/13 07:45:44;;;;;;;12.57;11.27;;;;;;;27.10;35.14;99592.72;5012558;28;20129;-82
2021/05/13 07:48:11;;;;;;;12.97;11.67;;;;;;;26.97;35.26;99592.63;5015141;28;20046;-83
2021/05/13 07:50:38;;;;;;;12.82;11.43;;;;;;;26.35;36.07;99593.28;5016625;28;20050;-83
2021/05/13 07:53:06;;;;;;;13.52;11.95;;;;;;;26.36;37.14;99600.38;5018526;28;20069;-81
2021/05/13 07:55:33;;;;;;;13.38;12.07;;;;;;;26.00;36.53;99595.78;5012422;28;20058;-82
2021/05/13 07:58:01;;;;;;;13.45;12.00;;;;;;;26.06;36.40;99592.31;5001397;28;20057;-81
2021/05/13 08:00:28;;;;;;;12.40;11.15;;;;;;;25.85;37.24;99594.97;5014223;28;20482;-83
2021/05/13 08:02:56;;;;;;;13.25;11.95;;;;;;;25.93;36.92;99580.47;5015679;28;20087;-81
2021/05/13 08:05:22;;;;;;;14.80;12.52;;;;;;;25.69;37.18;99587.03;5013797;28;20128;-82
2021/05/13 08:07:49;;;;;;;11.07;10.07;;;;;;;25.91;38.02;99585.22;5014573;28;20724;-81
2021/05/13 08:10:16;;;;;;;12.57;11.27;;;;;;;26.42;35.52;99578.75;5017131;28;20113;-83
2021/05/13 08:12:42;;;;;;;16.08;11.48;;;;;;;26.37;34.85;99574.94;5019363;28;20113;-82
2021/05/13 08:15:11;;;;;;;14.50;12.40;;;;;;;26.18;35.49;99574.50;5014801;28;20050;-81
2021/05/13 08:17:40;;;;;;;12.48;10.07;;;;;;;26.32;36.65;99567.34;5013530;28;20196;-83
2021/05/13 08:20:08;;;;;;;13.80;11.32;;;;;;;26.53;35.65;99570.06;5021264;28;22106;-81
2021/05/13 08:22:36;;;;;;;12.75;11.48;;;;;;;26.32;35.19;99574.66;5019306;28;20083;-79
2021/05/13 08:25:06;;;;;;;12.63;11.43;;;;;;;25.74;37.68;99574.59;5021052;28;20077;-80
2021/05/13 08:27:33;;;;;;;;;;;;;;;25.69;37.57;99565.34;5023106;28;20050;-83
2021/05/13 08:30:00;;;;;;;14.77;13.38;;;;;;;24.81;38.74;99566.94;5026295;28;19929;-79
2021/05/13 08:32:27;;;;;;;18.00;13.63;;;;;;;24.21;39.99;99574.16;5026846;28;20394;-82
2021/05/13 08:34:54;;;;;;;16.20;14.50;;;;;;;23.90;40.91;99568.78;5026884;28;20042;-81
2021/05/13 08:37:21;;;;;;;16.17;13.68;;;;;;;23.71;42.58;99561.94;5027591;28;20113;-81
2021/05/13 08:39:48;;;;;;;17.15;14.85;;;;;;;23.11;43.92;99561.63;5024863;28;20085;-80
2021/05/13 08:42:15;;;;;;;16.50;14.85;;;;;;;22.42;46.19;99562.97;5006489;28;20042;-80
2021/05/13 08:44:44;;;;;;;15.85;14.30;;;;;;;21.81;47.06;99570.44;5017934;28;20050;-79
2021/05/13 08:47:11;;;;;;;18.55;15.15;;;;;;;21.13;47.97;99551.56;5015598;28;20060;-82
2021/05/13 08:49:40;;;;;;;19.58;16.08;;;;;;;20.63;49.57;99556.78;5014913;28;20137;-84
2021/05/13 08:52:13;;;;;;;20.30;16.85;;;;;;;20.25;49.59;99555.25;5023821;28;20113;-81
2021/05/13 08:55:00;;;;;;;19.67;15.77;;;;;;;19.85;52.03;99553.84;5020002;28;20065;-81
2021/05/13 08:57:27;;;;;;;21.40;15.65;;;;;;;19.56;53.21;99555.84;5030031;28;20145;-81
2021/05/13 08:59:56;;;;;;;20.63;16.38;;;;;;;19.35;53.00;99553.41;5028908;28;20152;-81
2021/05/13 09:02:26;;;;;;;25.08;18.05;;;;;;;19.00;54.52;99543.38;5026537;28;20109;-79
2021/05/13 09:04:54;;;;;;;20.08;15.98;;;;;;;18.72;56.09;99544.28;5015312;28;20064;-82
2021/05/13 09:07:31;;;;;;;20.38;16.02;;;;;;;18.69;55.98;99534.69;5016866;28;20046;-82
2021/05/13 09:10:05;;;;;;;19.05;15.00;;;;;;;18.73;56.25;99545.97;5017368;28;20045;-81
2021/05/13 09:12:45;;;;;;;17.40;14.85;;;;;;;18.71;56.70;99542.59;5017238;28;20092;-81
2021/05/13 09:15:27;;;;;;;18.92;15.40;;;;;;;18.54;55.63;99542.31;5018588;28;21252;-81
2021/05/13 09:17:58;;;;;;;16.98;14.80;;;;;;;18.47;56.08;99541.19;5017419;28;20137;-81
2021/05/13 09:20:24;;;;;;;19.33;13.32;;;;;;;18.42;56.39;99534.53;5014010;28;20048;-81
2021/05/13 09:22:52;;;;;;;17.67;13.35;;;;;;;18.44;56.84;99525.38;5017090;28;20046;-80
2021/05/13 09:25:20;;;;;;;18.15;12.80;;;;;;;18.51;56.22;99541.75;5017356;28;20046;-81
2021/05/13 09:27:49;;;;;;;14.45;12.82;;;;;;;18.47;55.74;99525.09;5019819;28;20049;-81
2021/05/13 09:30:18;;;;;;;16.65;12.85;;;;;;;18.46;55.30;99531.44;5015473;28;20053;-80
2021/05/13 09:32:52;;;;;;;14.23;11.18;;;;;;;18.44;55.40;99524.53;5026167;28;20061;-81
2021/05/13 09:35:20;;;;;;;16.48;11.85;;;;;;;18.55;55.06;99521.72;5027169;28;20126;-80
2021/05/13 09:37:48;;;;;;;14.25;12.05;;;;;;;18.56;54.08;99518.03;5021496;28;20061;-80
2021/05/13 09:40:38;;;;;;;14.40;10.80;;;;;;;18.60;54.22;99513.25;5029730;28;20109;-81
2021/05/13 09:43:28;;;;;;;11.70;9.90;;;;;;;18.71;53.93;99515.78;5028449;28;20073;-80
2021/05/13 09:46:02;;;;;;;13.18;10.40;;;;;;;18.80;52.43;99517.56;5029973;28;20101;-81
2021/05/13 09:48:43;;;;;;;13.38;8.23;;;;;;;18.73;50.13;99513.81;5034238;28;20046;-79
2021/05/13 09:51:30;;;;;;;10.98;6.43;;;;;;;18.79;50.26;99506.00;5027192;28;20106;-79
2021/05/13 09:54:17;;;;;;;10.55;7.55;;;;;;;18.84;50.06;99502.88;5034954;28;20060;-79
2021/05/13 09:56:47;;;;;;;11.13;5.88;;;;;;;18.93;49.34;99500.16;5032272;28;20065;-83
2021/05/13 09:59:38;;;;;;;7.57;5.93;;;;;;;19.02;48.62;99503.81;5034168;28;20044;-81
2021/05/13 10:02:10;;;;;;;8.65;5.20;;;;;;;19.12;46.77;99499.25;5029835;28;20065;-80
2021/05/13 10:04:37;;;;;;;7.55;4.18;;;;;;;19.20;45.83;99495.84;5028435;28;20061;-81
2021/05/13 10:07:04;;;;;;;7.82;4.05;;;;;;;19.23;44.88;99501.72;5022581;28;20060;-81
2021/05/13 10:09:33;;;;;;;8.07;4.78;;;;;;;19.33;45.68;99490.13;5015975;28;20124;-81
2021/05/13 10:12:22;;;;;;;7.80;4.70;;;;;;;19.41;44.76;99493.72;5017134;28;20045;-81
2021/05/13 10:14:50;;;;;;;8.80;4.88;;;;;;;19.44;44.03;99481.84;5015574;28;20668;-81
2021/05/13 10:17:18;;;;;;;6.82;3.80;;;;;;;19.45;43.52;99481.69;5017089;28;20125;-82
2021/05/13 10:19:55;;;;;;;4.78;2.47;;;;;;;19.33;42.83;99479.38;5018738;28;20073;-82
2021/05/13 10:22:22;;;;;;;9.00;4.30;;;;;;;19.48;45.07;99477.88;5013677;28;20081;-81
2021/05/13 10:25:20;;;;;;;6.65;3.40;;;;;;;19.63;45.05;99480.91;5012878;28;20046;-77
2021/05/13 10:27:52;;;;;;;5.38;3.10;;;;;;;19.49;43.77;99476.88;5003862;28;20092;-77
2021/05/13 10:30:27;;;;;;;5.63;3.28;;;;;;;19.28;44.62;99477.97;4987756;28;20108;-77
2021/05/13 10:33:16;;;;;;;4.80;2.70;;;;;;;19.12;45.01;99472.41;5004094;28;20133;-76
2021/05/13 10:36:08;;;;;;;4.78;2.80;;;;;;;19.35;43.15;99469.34;5005879;28;21031;-76
2021/05/13 10:38:42;;;;;;;3.70;2.20;;;;;;;19.62;41.80;99466.63;5006276;28;20129;-75
2021/05/13 10:41:27;;;;;;;7.10;2.42;;;;;;;19.84;41.61;99465.31;5003701;28;20064;-76
2021/05/13 10:43:56;;;;;;;5.43;2.22;;;;;;;20.08;40.92;99462.03;5004758;28;20498;-76
2021/05/13 10:46:27;;;;;;;4.85;2.50;;;;;;;20.02;39.12;99455.44;5010142;28;20042;-76
2021/05/13 10:49:13;;;;;;;6.07;2.47;;;;;;;19.82;39.68;99460.13;5009571;28;21463;-78
2021/05/13 10:51:42;;;;;;;7.75;2.13;;;;;;;19.62;39.09;99458.59;5002531;28;20577;-76
2021/05/13 10:54:08;;;;;;;4.78;1.80;;;;;;;19.23;37.61;99452.56;5010565;28;20057;-76
2021/05/13 10:56:38;;;;;;;3.78;1.70;;;;;;;19.25;38.81;99446.06;5009382;28;20124;-76
2021/05/13 10:59:05;;;;;;;4.05;2.10;;;;;;;19.64;38.71;99443.16;5003336;28;20080;-76
2021/05/13 11:01:46;;;;;;;6.03;2.00;;;;;;;19.95;38.95;99452.53;5005981;28;20045;-76
2021/05/13 11:04:22;;;;;;;4.78;1.80;;;;;;;20.27;36.56;99449.25;5006796;28;20046;-76
2021/05/13 11:06:51;;;;;;;4.75;1.98;;;;;;;20.44;35.31;99450.25;5012601;28;20140;-76
2021/05/13 11:09:37;;;;;;;5.13;1.70;;;;;;;20.48;34.48;99445.38;5007482;28;20076;-76
2021/05/13 11:12:26;;;;;;;4.32;1.83;;;;;;;20.64;36.23;99446.31;5009972;28;20113;-76
2021/05/13 11:17:56;;;;;;;3.10;1.42;;;;;;;20.80;33.53;99440.19;4997725;28;20149;-76
2021/05/13 11:20:56;;;;;;;2.85;1.35;;;;;;;20.70;32.71;99439.47;5007079;28;20547;-77
2021/05/13 11:23:27;;;;;;;7.78;1.90;;;;;;;20.56;34.92;99438.22;5010235;28;20414;-77
2021/05/13 11:26:14;;;;;;;4.38;1.52;;;;;;;20.71;33.83;99437.63;5009553;28;20073;-77
2021/05/13 11:28:46;;;;;;;5.30;1.98;;;;;;;20.63;38.39;99438.41;5009229;28;20521;-77
2021/05/13 11:31:21;;;;;;;4.00;2.00;;;;;;;20.48;39.29;99440.00;5007701;28;20068;-77
2021/05/13 11:33:56;;;;;;;4.65;2.00;;;;;;;20.32;39.34;99416.50;5007289;28;20415;-77
2021/05/13 11:36:30;;;;;;;6.63;2.53;;;;;;;20.31;38.93;99417.50;5012451;28;20041;-77
2021/05/13 11:39:10;;;;;;;6.63;2.78;;;;;;;20.31;39.39;99415.66;5016133;28;20145;-77
2021/05/13 11:41:40;;;;;;;5.75;3.30;;;;;;;20.12;39.82;99420.41;5022706;28;20805;-77
2021/05/13 11:44:07;;;;;;;3.88;1.80;;;;;;;19.80;40.83;99412.94;5011670;28;20057;-78